WetterOnline ( https://www.wetteronline.ch )

Wetter aktuell Ostrava

Aktuelles Wetter: Ostrava (260m)

6-stündlich | Neueste Meldungen
Ortszeit Temperatur Wetter
Mi, 03.06. 14:00 18.6° C leicht bewölkt
Mi, 03.06. 8:00 12.3° C bedeckt
Mi, 03.06. 2:00 11.0° C bewölkt
Di, 02.06. 20:00 15.8° C leicht bewölkt
Di, 02.06. 14:00 17.6° C wolkig
Di, 02.06. 8:00 13.5° C wolkig
Di, 02.06. 2:00 11.8° C bewölkt
Mo, 01.06. 20:00 16.9° C wolkenlos
Ortszeit Temperatur Wetter
Mi, 03.06. 17:00 19.4° C leicht bewölkt
Mi, 03.06. 16:30 19° C leicht bewölkt
Mi, 03.06. 16:00 19.2° C leicht bewölkt
Mi, 03.06. 15:30 18° C leicht bewölkt
Mi, 03.06. 15:00 18.8° C leicht bewölkt
Mi, 03.06. 14:30 18° C leicht bewölkt
Mi, 03.06. 14:00 18.6° C leicht bewölkt
Mi, 03.06. 13:30 18° C leicht bewölkt
Ortszeit Relative Feuchte Sichtweite
Mi, 03.06. 14:00 44% 30 km
Mi, 03.06. 8:00 92% 12 km
Mi, 03.06. 2:00 88% 30 km
Di, 02.06. 20:00 63% 35 km
Di, 02.06. 14:00 47% 35 km
Di, 02.06. 8:00 62% 35 km
Di, 02.06. 2:00 71% 20 km
Mo, 01.06. 20:00 41% 50 km
Ortszeit Relative Feuchte Sichtweite
Mi, 03.06. 17:00 42% 30 km
Mi, 03.06. 16:30 43% >10 km
Mi, 03.06. 16:00 49% 30 km
Mi, 03.06. 15:30 56% >10 km
Mi, 03.06. 15:00 51% 30 km
Mi, 03.06. 14:30 56% >10 km
Mi, 03.06. 14:00 44% 30 km
Mi, 03.06. 13:30 49% >10 km
Ortszeit Niederschlagsmenge Niederschlagsart
Mi, 03.06. 14:00 0.0 l/m2 in 6 Std. -
Mi, 03.06. 8:00 0.1 l/m2 in 12 Std. Schauer
Mi, 03.06. 2:00 0.0 l/m2 in 6 Std. -
Di, 02.06. 20:00 0.3 l/m2 in 12 Std. Schauer
Di, 02.06. 14:00 0.0 l/m2 in 6 Std. -
Di, 02.06. 8:00 0.0 l/m2 in 12 Std. -
Di, 02.06. 2:00 0.0 l/m2 in 6 Std. -
Mo, 01.06. 20:00 0.0 l/m2 in 12 Std. -
Ortszeit Niederschlagsmenge Niederschlagsart
Mi, 03.06. 17:00 0.0 l/m2 in 1 Std. -
Mi, 03.06. 16:30 keine Meldung -
Mi, 03.06. 16:00 0.0 l/m2 in 1 Std. -
Mi, 03.06. 15:30 keine Meldung -
Mi, 03.06. 15:00 0.0 l/m2 in 1 Std. -
Mi, 03.06. 14:30 keine Meldung -
Mi, 03.06. 14:00 0.0 l/m2 in 1 Std. -
Mi, 03.06. 13:30 keine Meldung -
Ortszeit Stärke Spitze Richtung
km/h Bft. km/h Grad Sektor
Mi, 03.06. 14:00 4 1 - uml. uml.
Mi, 03.06. 8:00 11 2 - 250° W
Mi, 03.06. 2:00 11 2 - 250° W
Di, 02.06. 20:00 11 2 40 330° NW
Di, 02.06. 14:00 22 4 - 360° N
Di, 02.06. 8:00 14 3 - 10° N
Di, 02.06. 2:00 4 1 - uml. uml.
Mo, 01.06. 20:00 18 3 40 10° N
Ortszeit Stärke Spitze Richtung
km/h Bft. km/h Grad Sektor
Mi, 03.06. 17:00 11 2 - 20° N
Mi, 03.06. 16:30 13 3 - 40° NO
Mi, 03.06. 16:00 14 3 - 10° N
Mi, 03.06. 15:30 11 2 - 40° NO
Mi, 03.06. 15:00 11 2 - 30° NO
Mi, 03.06. 14:30 6 1 - uml. uml.
Mi, 03.06. 14:00 4 1 - uml. uml.
Mi, 03.06. 13:30 11 2 - 340° N
Ortszeit Untergrenze Bedeckung Gattung
total tief tief mittel hoch
Mi, 03.06. 14:00 1380 m 4/8 4/8 Cu Ac -
Mi, 03.06. 8:00 210 m 8/8 8/8 Sc - -
Mi, 03.06. 2:00 660 m 7/8 7/8 Sc - -
Di, 02.06. 20:00 2400 m 6/8 2/8 - Ac Ci
Di, 02.06. 14:00 1290 m 6/8 3/8 Cu Ac -
Di, 02.06. 8:00 1380 m 6/8 6/8 Sc Ac -
Di, 02.06. 2:00 1800 m 7/8 7/8 Sc - -
Mo, 01.06. 20:00 - 0/8 0/8 - - -
Ortszeit Bedeckungsgrad in Achtel und Wolkenuntergrenze
Mi, 03.06. 17:00 2(1500m)
Mi, 03.06. 16:30 1-2(1440m)
Mi, 03.06. 16:00 2(1380m)
Mi, 03.06. 15:30 1-2(1350m)
Mi, 03.06. 15:00 2(1380m)
Mi, 03.06. 14:30 3-4(1350m)
Mi, 03.06. 14:00 4(1380m)
Mi, 03.06. 13:30 3-4(1350m)
Ortszeit Luftdruck NN (hPa) Tendenz (hPa in 3 Std.)
Mi, 03.06. 14:00 1006 - 0,9
Mi, 03.06. 8:00 1007 - 0,3
Mi, 03.06. 2:00 1009 - 1,1
Di, 02.06. 20:00 1010 - 1,6
Di, 02.06. 14:00 1014 - 1,1
Di, 02.06. 8:00 1016 - 0,3
Di, 02.06. 2:00 1017 - 1,1
Mo, 01.06. 20:00 1018 - 0,1
Ortszeit Luftdruck NN (hPa) Tendenz (hPa in 3 Std.)
Mi, 03.06. 17:00 1004 - 1,3
Mi, 03.06. 16:30 1004 keine Meldung
Mi, 03.06. 16:00 1005 - 1,3
Mi, 03.06. 15:30 1005 keine Meldung
Mi, 03.06. 15:00 1005 - 1,2
Mi, 03.06. 14:30 1005 keine Meldung
Mi, 03.06. 14:00 1006 - 0,9
Mi, 03.06. 13:30 1006 keine Meldung
Ortszeit Schneehöhe (cm)
Mi, 03.06. 14:00 -
Mi, 03.06. 8:00 -
Mi, 03.06. 2:00 -
Di, 02.06. 20:00 0
Di, 02.06. 14:00 -
Di, 02.06. 8:00 -
Di, 02.06. 2:00 -
Mo, 01.06. 20:00 -
Ortszeit Schneehöhe (cm)
Mi, 03.06. 17:00 -
Mi, 03.06. 16:30 -
Mi, 03.06. 16:00 -
Mi, 03.06. 15:30 -
Mi, 03.06. 15:00 -
Mi, 03.06. 14:30 -
Mi, 03.06. 14:00 -
Mi, 03.06. 13:30 -
Link zu dieser Seite / Seite empfehlen

Das Wetter in ...